Time;durP1;ratioP1;P1;durP2;ratioP2;P2;SDS_P1;SDS_P2;PMS_P1;PMS_P2;Temp;Humidity;BMP_temperature;BMP_pressure;BME280_temperature;BME280_humidity;BME280_pressure;Samples;Min_cycle;Max_cycle;Signal;HPM_P1;HPM_P2
2023/08/27 00:01:44;;;;;;;;;;;20.80;99.70;;;21.04;64.48;98189.16;4847619;28;124041;-82
2023/08/27 00:04:22;;;;;;;;;;;20.80;99.70;;;21.08;63.94;98178.72;4856176;28;110379;-82
2023/08/27 00:06:48;;;;;;;;;;;20.80;99.70;;;21.09;64.12;98157.88;4841984;28;109166;-82
2023/08/27 00:09:20;;;;;;;;;;;20.80;99.70;;;21.09;64.75;98135.41;4858895;29;124317;-81
2023/08/27 00:11:46;;;;;;;;;;;20.80;99.80;;;21.05;64.15;98128.16;4894576;28;123996;-82
2023/08/27 00:14:22;;;;;;;;;;;20.80;99.80;;;20.99;64.56;98113.72;4914480;28;109472;-82
2023/08/27 00:17:10;;;;;;;;;;;20.80;99.90;;;20.92;64.86;98097.63;4916746;28;108798;-82
2023/08/27 00:20:10;;;;;;;;;;;20.70;99.90;;;20.86;64.82;98090.03;4893584;28;124246;-82
2023/08/27 00:23:06;;;;;;;;;;;21.90;99.90;;;20.82;65.30;98097.63;4899028;28;123435;-83
2023/08/27 00:25:32;;;;;;;;;;;19.10;99.50;;;20.84;65.01;98098.81;4948348;28;109566;-84
2023/08/27 00:27:58;;;;;;;;;;;20.60;99.90;;;20.86;65.18;98120.91;4971150;28;108670;-82
2023/08/27 00:30:43;;;;;;;;;;;20.60;99.90;;;20.84;65.37;98140.94;4951903;28;125083;-82
2023/08/27 00:36:10;;;;;;;;;;;20.60;99.90;;;20.72;65.76;98158.97;4939742;28;109078;-82
2023/08/27 00:38:41;;;;;;;;;;;20.60;99.90;;;20.70;65.39;98164.19;4948751;28;108566;-82
2023/08/27 00:41:08;;;;;;;;;;;20.50;99.90;;;20.70;65.45;98166.97;4953670;28;125411;-82
2023/08/27 00:43:55;;;;;;;;;;;22.20;99.90;;;20.72;65.59;98158.97;4930676;28;123707;-82
2023/08/27 00:47:05;;;;;;;;;;;20.60;99.90;;;20.73;65.34;98157.75;4967496;28;109300;-84
2023/08/27 00:49:46;;;;;;;;;;;20.60;99.90;;;20.76;65.23;98180.63;4908810;28;108821;-84
2023/08/27 00:52:24;;;;;;;;;;;20.60;99.90;;;20.78;65.39;98181.84;4898435;28;123953;-82
2023/08/27 00:54:59;;;;;;;;;;;20.60;99.90;;;20.81;65.34;98188.69;4897309;28;123506;-84
2023/08/27 00:57:44;;;;;;;;;;;20.60;99.90;;;20.82;65.51;98190.28;4895868;28;110186;-84
2023/08/27 01:03:24;;;;;;;;;;;20.60;99.90;;;20.81;65.52;98197.09;4907377;28;124896;-84
2023/08/27 01:06:18;;;;;;;;;;;20.60;99.90;;;20.81;65.41;98185.88;4917053;28;124031;-84
2023/08/27 01:09:21;;;;;;;;;;;20.60;99.90;;;20.80;65.28;98185.06;4939641;28;110139;-84
2023/08/27 01:12:13;;;;;;;;;;;20.50;99.90;;;20.84;65.31;98185.06;4916188;28;109238;-82
2023/08/27 01:14:48;;;;;;;;;;;20.60;99.90;;;20.84;65.24;98177.44;4942120;28;125409;-84
2023/08/27 01:20:34;;;;;;;;;;;20.60;99.90;;;20.86;64.99;98155.41;4952623;28;109668;-84
2023/08/27 01:23:05;;;;;;;;;;;20.60;99.90;;;20.88;65.21;98153.00;4925547;28;107910;-84
2023/08/27 01:26:02;;;;;;;;;;;20.60;99.90;;;20.87;65.35;98144.97;4952031;28;124514;-84
2023/08/27 01:32:20;;;;;;;;;;;20.60;99.90;;;20.88;65.12;98138.16;4907834;28;110045;-84
2023/08/27 01:34:56;;;;;;;;;;;20.60;99.90;;;20.89;65.57;98125.72;4896058;28;108576;-84
2023/08/27 01:37:25;;;;;;;;;;;20.60;99.90;;;20.87;65.40;98133.72;4863924;28;123646;-82
2023/08/27 01:40:18;;;;;;;;;;;20.60;99.90;;;20.84;65.20;98142.97;4929199;28;123603;-82
2023/08/27 01:42:47;;;;;;;;;;;20.60;99.90;;;20.88;65.25;98150.19;4892148;28;109586;-83
2023/08/27 01:45:31;;;;;;;;;;;20.60;99.90;;;20.88;65.23;98152.22;4907079;28;108641;-83
2023/08/27 01:48:07;;;;;;;;;;;20.60;99.90;;;20.90;65.12;98149.78;4894785;28;124540;-81
2023/08/27 01:50:44;;;;;;;;;;;20.60;99.90;;;20.90;65.49;98146.97;4912115;28;123640;-83
2023/08/27 01:53:10;;;;;;;;;;;20.60;99.90;;;20.91;65.50;98137.38;4914700;28;109918;-83
2023/08/27 01:59:44;;;;;;;;;;;20.60;99.90;;;20.89;65.12;98109.66;4875750;28;124979;-81
2023/08/27 02:02:10;;;;;;;;;;;20.60;99.90;;;20.93;65.15;98115.31;4825499;29;123867;-82
2023/08/27 02:05:11;;;;;;;;;;;20.60;99.90;;;20.93;64.92;98126.53;4837927;29;109689;-83
2023/08/27 02:07:45;;;;;;;;;;;21.50;99.90;;;20.95;65.06;98121.31;4807275;29;108114;-83
2023/08/27 02:13:37;;;;;;;;;;;20.70;99.90;;;20.92;65.40;98116.50;4818640;29;124763;-83
2023/08/27 02:16:44;;;;;;;;;;;20.70;99.90;;;20.94;65.01;98117.72;4818552;29;109965;-82
2023/08/27 02:19:15;;;;;;;;;;;20.70;99.90;;;20.96;65.00;98125.75;4840168;29;108915;-82
2023/08/27 02:21:44;;;;;;;;;;;20.70;99.90;;;20.98;65.31;98123.31;4851844;29;124243;-83
2023/08/27 02:24:10;;;;;;;;;;;20.70;99.90;;;21.00;65.33;98120.91;4850669;29;123766;-83
2023/08/27 02:26:48;;;;;;;;;;;20.70;99.90;;;21.02;64.86;98123.34;4856275;29;109316;-83
2023/08/27 02:32:37;;;;;;;;;;;20.70;99.90;;;21.00;65.06;98137.78;4859957;28;124698;-82
2023/08/27 02:35:09;;;;;;;;;;;20.70;99.90;;;20.99;65.13;98153.03;4856205;28;123612;-80
2023/08/27 02:37:42;;;;;;;;;;;20.70;99.90;;;20.98;65.10;98151.41;4901489;28;109500;-81
2023/08/27 02:40:44;;;;;;;;;;;20.70;99.90;;;20.97;65.32;98141.38;4945669;28;107856;-81
2023/08/27 02:43:10;;;;;;;;;;;20.70;99.90;;;20.91;65.28;98128.94;4943176;28;124842;-81
2023/08/27 02:45:58;;;;;;;;;;;20.60;99.90;;;20.85;65.16;98141.78;4956995;28;124284;-82
2023/08/27 02:48:34;;;;;;;;;;;20.50;99.90;;;20.80;65.63;98147.78;4945145;28;109510;-81
2023/08/27 02:51:11;;;;;;;;;;;20.60;99.90;;;20.78;65.32;98136.94;4907394;28;108576;-82
2023/08/27 03:00:30;;;;;;;;;;;20.60;99.90;;;20.79;65.58;98130.09;4922865;28;109745;-81
2023/08/27 03:02:57;;;;;;;;;;;20.60;99.90;;;20.86;65.67;98132.13;4924613;28;108856;-82
2023/08/27 03:05:23;;;;;;;;;;;20.60;99.90;;;20.89;65.18;98128.53;4929186;28;124383;-81
2023/08/27 03:07:49;;;;;;;;;;;20.60;99.90;;;20.95;65.41;98129.72;4959571;28;122075;-81
2023/08/27 03:10:16;;;;;;;;;;;20.60;99.90;;;20.97;65.75;98141.38;4940998;28;109803;-82
2023/08/27 03:12:45;;;;;;;;;;;20.70;99.90;;;21.00;65.66;98143.38;4943508;28;108878;-82
2023/08/27 03:15:14;;;;;;;;;;;20.70;99.90;;;21.01;65.44;98142.22;4931645;28;123191;-81
2023/08/27 03:17:40;;;;;;;;;;;20.70;99.90;;;21.04;65.77;98121.75;4932915;28;125868;-82
2023/08/27 03:20:09;;;;;;;;;;;20.70;99.90;;;21.05;65.63;98106.47;4945861;28;109107;-82
2023/08/27 03:22:36;;;;;;;;;;;20.70;99.90;;;21.05;65.74;98105.69;4931373;28;108366;-82
2023/08/27 03:25:02;;;;;;;;;;;20.70;99.90;;;21.04;65.77;98102.09;4944212;28;124373;-82
2023/08/27 03:27:29;;;;;;;;;;;20.70;99.90;;;21.04;66.01;98099.28;4943496;28;124536;-82
2023/08/27 03:29:55;;;;;;;;;;;19.20;99.90;;;21.06;65.96;98094.03;4933584;28;108440;-82
2023/08/27 03:32:22;;;;;;;;;;;20.80;99.90;;;21.08;65.63;98093.66;4948253;28;109042;-82
2023/08/27 03:34:50;;;;;;;;;;;20.60;99.90;;;21.09;65.75;98089.63;4936932;28;124345;-82
2023/08/27 03:37:17;;;;;;;;;;;20.80;99.90;;;21.07;65.83;98092.84;4941545;28;123678;-82
2023/08/27 03:39:43;;;;;;;;;;;20.80;99.90;;;21.06;65.61;98093.25;4953075;28;109645;-81
2023/08/27 03:42:13;;;;;;;;;;;20.80;99.90;;;21.03;65.51;98075.19;4888148;28;100461;-82
2023/08/27 03:44:40;;;;;;;;;;;20.80;99.90;;;21.00;65.71;98092.84;4942455;28;125018;-82
2023/08/27 03:47:08;;;;;;;;;;;20.80;99.90;;;20.97;65.87;98090.84;4942900;28;123961;-82
2023/08/27 03:49:35;;;;;;;;;;;20.80;99.90;;;20.91;66.09;98087.63;4927544;28;109060;-83
2023/08/27 03:52:01;;;;;;;;;;;20.70;99.90;;;20.89;65.66;98086.41;4938942;28;108769;-81
2023/08/27 03:54:27;;;;;;;;;;;20.70;99.90;;;20.89;66.08;98083.59;4934352;28;123496;-83
2023/08/27 03:56:54;;;;;;;;;;;20.70;99.90;;;20.89;66.16;98089.22;4949657;28;124173;-82
2023/08/27 03:59:22;;;;;;;;;;;20.70;99.90;;;20.87;65.62;98083.97;4950509;28;109288;-81
2023/08/27 04:01:49;;;;;;;;;;;20.70;99.90;;;20.87;66.22;98077.56;4940878;28;108825;-82
2023/08/27 04:04:15;;;;;;;;;;;20.60;99.90;;;20.86;65.99;98075.97;4920519;28;124375;-83
2023/08/27 04:06:41;;;;;;;;;;;20.60;99.90;;;20.86;65.94;98070.38;4950025;28;123953;-81
2023/08/27 04:09:08;;;;;;;;;;;20.60;99.90;;;20.85;66.09;98057.53;4940287;28;109501;-81
2023/08/27 04:11:34;;;;;;;;;;;20.60;99.90;;;20.84;66.19;98055.91;4952352;28;108949;-81
2023/08/27 04:14:06;;;;;;;;;;;20.60;99.90;;;20.82;65.90;98050.72;4951415;28;123211;-80
2023/08/27 04:16:32;;;;;;;;;;;20.60;99.90;;;20.84;65.88;98075.56;4940399;28;123976;-80
2023/08/27 04:19:00;;;;;;;;;;;20.60;99.90;;;20.83;66.06;98088.00;4950274;28;109324;-80
2023/08/27 04:21:27;;;;;;;;;;;20.60;99.90;;;20.80;66.29;98089.59;4954035;28;108365;-81
2023/08/27 04:23:55;;;;;;;;;;;20.60;99.90;;;20.76;66.40;98088.00;4951986;28;124123;-83
2023/08/27 04:26:22;;;;;;;;;;;20.60;99.90;;;20.73;66.56;98083.97;4928282;28;124101;-82
2023/08/27 04:28:50;;;;;;;;;;;20.50;99.90;;;20.72;66.62;98071.16;4933653;28;109574;-80
2023/08/27 04:31:17;;;;;;;;;;;20.50;99.90;;;20.70;66.51;98074.34;4948725;28;109361;-81
2023/08/27 04:33:45;;;;;;;;;;;20.50;99.90;;;20.71;66.44;98061.09;4939964;28;124010;-80
2023/08/27 04:36:12;;;;;;;;;;;20.50;99.90;;;20.70;66.35;98035.03;4930609;28;124548;-80
2023/08/27 04:38:38;;;;;;;;;;;20.50;99.90;;;20.73;66.86;98011.78;4949907;28;108740;-81
2023/08/27 04:41:04;;;;;;;;;;;20.50;99.90;;;20.74;66.69;98026.63;4937341;28;108963;-81
2023/08/27 04:43:31;;;;;;;;;;;20.50;99.90;;;20.73;66.82;98017.38;4950145;28;124282;-80
2023/08/27 04:45:57;;;;;;;;;;;20.50;99.90;;;20.74;66.94;98009.78;4942180;28;124118;-81
2023/08/27 04:48:23;;;;;;;;;;;20.50;99.90;;;20.74;66.45;98033.06;4941073;28;109398;-81
2023/08/27 04:50:49;;;;;;;;;;;20.50;99.90;;;20.73;66.70;98034.22;4952980;28;108752;-82
2023/08/27 04:53:16;;;;;;;;;;;20.50;99.90;;;20.70;66.43;98045.47;4949443;28;124495;-81
2023/08/27 04:55:47;;;;;;;;;;;20.50;99.90;;;20.69;66.51;98061.50;4932662;28;123848;-81
2023/08/27 04:58:15;;;;;;;;;;;20.50;99.90;;;20.65;66.35;98043.84;4931457;28;108872;-81
2023/08/27 05:00:43;;;;;;;;;;;20.50;99.90;;;20.62;66.49;98055.88;4927028;28;108911;-83
2023/08/27 05:03:10;;;;;;;;;;;20.40;99.90;;;20.60;66.74;98058.28;4961801;28;124118;-83
2023/08/27 05:05:37;;;;;;;;;;;20.40;99.90;;;20.61;66.52;98065.50;4948014;28;124120;-83
2023/08/27 05:08:05;;;;;;;;;;;20.40;99.90;;;20.59;66.93;98061.50;4946973;28;109322;-82
2023/08/27 05:10:35;;;;;;;;;;;20.40;99.90;;;20.58;66.51;98062.69;4935605;28;108678;-82
2023/08/27 05:13:03;;;;;;;;;;;20.40;99.90;;;20.57;66.84;98070.28;4933973;28;123288;-81
2023/08/27 05:15:30;;;;;;;;;;;20.30;99.90;;;20.57;66.71;98059.06;4953609;28;124438;-83
2023/08/27 05:17:56;;;;;;;;;;;20.30;99.90;;;20.57;66.69;98064.69;4952103;28;109057;-82
2023/08/27 05:20:24;;;;;;;;;;;20.30;99.90;;;20.57;67.08;98075.91;4940397;28;109836;-82
2023/08/27 05:22:51;;;;;;;;;;;20.30;99.90;;;20.55;66.75;98097.16;4950906;28;124276;-82
2023/08/27 05:25:20;;;;;;;;;;;20.30;99.90;;;20.50;66.68;98092.72;4942714;28;123847;-81
2023/08/27 05:27:47;;;;;;;;;;;20.30;99.90;;;20.43;67.18;98081.47;4954938;28;109474;-83
2023/08/27 05:30:14;;;;;;;;;;;20.20;99.90;;;20.40;66.88;98087.88;4945354;28;108975;-82
2023/08/27 05:32:41;;;;;;;;;;;20.20;99.90;;;20.38;67.13;98084.66;4956856;28;124818;-82
2023/08/27 05:35:07;;;;;;;;;;;20.20;99.90;;;20.38;67.35;98082.63;4965658;28;123687;-83
2023/08/27 05:37:34;;;;;;;;;;;20.20;99.90;;;20.40;67.25;98088.66;4945181;28;109407;-82
2023/08/27 05:40:08;;;;;;;;;;;20.20;99.90;;;20.45;67.12;98096.72;4944661;28;108741;-82
2023/08/27 05:42:35;;;;;;;;;;;20.30;99.90;;;20.45;67.13;98079.88;4930526;28;124692;-82
2023/08/27 05:45:02;;;;;;;;;;;20.20;99.90;;;20.45;67.19;98084.69;4949944;28;123761;-83
2023/08/27 05:47:30;;;;;;;;;;;20.20;99.90;;;20.45;67.06;98085.47;4928944;28;110139;-83
2023/08/27 05:49:56;;;;;;;;;;;20.20;99.90;;;20.44;66.72;98074.63;4932779;28;109258;-82
2023/08/27 05:52:22;;;;;;;;;;;20.20;99.90;;;20.46;67.10;98078.66;4935623;28;124187;-82
2023/08/27 05:54:48;;;;;;;;;;;20.30;99.90;;;20.51;66.68;98094.31;4920514;28;122847;-82
2023/08/27 05:57:15;;;;;;;;;;;20.20;99.90;;;20.55;67.19;98095.16;4952708;28;109336;-82
2023/08/27 05:59:41;;;;;;;;;;;20.20;99.90;;;20.56;67.25;98084.75;4937909;28;108104;-82
2023/08/27 06:02:09;;;;;;;;;;;20.30;99.90;;;20.58;66.97;98077.53;4920669;28;124630;-82
2023/08/27 06:04:35;;;;;;;;;;;20.30;99.90;;;20.62;66.77;98078.34;4923646;28;123905;-81
2023/08/27 06:07:01;;;;;;;;;;;20.30;99.90;;;20.64;66.77;98089.97;4945323;28;111718;-82
2023/08/27 06:09:28;;;;;;;;;;;20.30;99.90;;;20.66;66.81;98084.78;4945045;28;109301;-82
2023/08/27 06:11:54;;;;;;;;;;;20.30;99.90;;;20.66;66.83;98084.78;4944450;28;124376;-82
2023/08/27 06:14:22;;;;;;;;;;;20.30;99.90;;;20.69;67.01;98078.34;4930440;28;123175;-81
2023/08/27 06:16:49;;;;;;;;;;;20.40;99.90;;;20.74;67.15;98065.94;4945646;28;109552;-81
2023/08/27 06:19:15;;;;;;;;;;;20.40;99.90;;;20.77;66.78;98064.31;4946605;28;112786;-81
2023/08/27 06:21:41;;;;;;;;;;;20.40;99.90;;;20.79;66.95;98057.09;4964382;28;124217;-82
2023/08/27 06:24:07;;;;;;;;;;;20.50;99.90;;;20.80;66.43;98060.72;4948200;28;124330;-81
2023/08/27 06:26:34;;;;;;;;;;;20.50;99.90;;;20.81;66.52;98057.50;4957470;28;109597;-82
2023/08/27 06:29:01;;;;;;;;;;;20.50;99.90;;;20.84;66.82;98041.88;4934531;28;108647;-81
2023/08/27 06:31:27;;;;;;;;;;;20.50;99.90;;;20.84;66.39;98045.47;4946083;28;124166;-82
2023/08/27 06:33:53;;;;;;;;;;;20.50;99.90;;;20.88;66.52;98048.31;4950689;28;124034;-82
2023/08/27 06:36:20;;;;;;;;;;;20.50;99.90;;;20.88;65.91;98054.72;4948968;28;109328;-82
2023/08/27 06:38:46;;;;;;;;;;;20.50;99.90;;;20.88;65.68;98070.78;4930627;28;108607;-83
2023/08/27 06:41:12;;;;;;;;;;;20.50;99.90;;;20.90;65.47;98073.97;4932929;28;124131;-82
2023/08/27 06:43:38;;;;;;;;;;;20.60;99.90;;;20.89;65.41;98075.97;4951404;28;122890;-81
2023/08/27 06:46:05;;;;;;;;;;;20.60;99.90;;;20.89;65.57;98080.78;4946668;28;108287;-81
2023/08/27 06:48:32;;;;;;;;;;;20.60;99.90;;;20.87;65.50;98091.63;4933255;28;108714;-81
2023/08/27 06:50:58;;;;;;;;;;;20.60;99.90;;;20.85;65.27;98096.84;4928305;28;124231;-80
2023/08/27 06:53:24;;;;;;;;;;;20.60;99.90;;;20.85;65.29;98094.03;4935176;28;123938;-80
2023/08/27 06:55:51;;;;;;;;;;;20.60;99.90;;;20.85;65.35;98096.84;4941688;28;110279;-81
2023/08/27 06:58:17;;;;;;;;;;;20.60;99.90;;;20.86;65.70;98113.28;4930704;28;109781;-80
2023/08/27 07:00:44;;;;;;;;;;;20.60;99.90;;;20.87;65.42;98106.44;4934474;28;124862;-81
2023/08/27 07:03:11;;;;;;;;;;;20.60;99.90;;;20.88;65.31;98107.28;4928281;28;124006;-81
2023/08/27 07:05:38;;;;;;;;;;;20.60;99.90;;;20.87;65.17;98105.66;4950698;28;109352;-81
2023/08/27 07:08:05;;;;;;;;;;;20.60;99.90;;;20.86;65.29;98098.44;4947431;28;108824;-79
2023/08/27 07:10:33;;;;;;;;;;;20.60;99.90;;;20.86;65.15;98081.59;4942340;28;125477;-80
2023/08/27 07:12:59;;;;;;;;;;;20.50;99.90;;;20.86;64.96;98078.78;4934671;28;123169;-81
2023/08/27 07:15:26;;;;;;;;;;;20.50;99.90;;;20.86;65.36;98079.59;4936778;28;109202;-80
2023/08/27 07:17:54;;;;;;;;;;;20.60;99.90;;;20.88;64.83;98079.19;4944965;28;108878;-80
2023/08/27 07:20:22;;;;;;;;;;;20.60;99.90;;;20.87;64.91;98061.53;4940878;28;124916;-80
2023/08/27 07:22:51;;;;;;;;;;;20.60;99.90;;;20.89;64.65;98075.19;4929264;28;124815;-81
2023/08/27 07:25:17;;;;;;;;;;;20.60;99.90;;;20.89;64.66;98064.75;4941993;28;110871;-80
2023/08/27 07:27:45;;;;;;;;;;;20.60;99.90;;;20.93;64.56;98053.53;4946003;28;108893;-79
2023/08/27 07:30:12;;;;;;;;;;;20.60;99.90;;;20.96;64.45;98063.97;4929039;28;124853;-78
2023/08/27 07:32:38;;;;;;;;;;;20.60;99.90;;;20.98;64.92;98057.94;4938428;28;124184;-79
2023/08/27 07:35:04;;;;;;;;;;;20.70;99.90;;;20.99;64.52;98054.72;4930731;28;108775;-81
2023/08/27 07:37:32;;;;;;;;;;;20.70;99.90;;;21.02;64.61;98048.31;4937344;28;108528;-81
2023/08/27 07:39:58;;;;;;;;;;;20.70;99.90;;;21.05;64.74;98055.13;4945906;28;124099;-80
2023/08/27 07:42:24;;;;;;;;;;;20.70;99.90;;;21.07;64.50;98049.91;4950983;28;124227;-79
2023/08/27 07:44:55;;;;;;;;;;;20.70;99.90;;;21.08;64.59;98054.31;4931732;28;110248;-80
2023/08/27 07:47:21;;;;;;;;;;;20.80;99.90;;;21.11;63.99;98053.53;4940916;28;109665;-81
2023/08/27 07:49:48;;;;;;;;;;;20.80;99.90;;;21.14;64.25;98069.56;4936563;28;124648;-81
2023/08/27 07:52:14;;;;;;;;;;;20.80;99.90;;;21.15;63.93;98088.84;4933597;28;123374;-79
2023/08/27 07:54:40;;;;;;;;;;;20.80;99.90;;;21.13;64.05;98098.88;4933298;28;109411;-80
2023/08/27 07:57:06;;;;;;;;;;;20.80;99.90;;;21.09;63.67;98104.50;4933926;28;108734;-81
2023/08/27 07:59:33;;;;;;;;;;;20.80;99.90;;;21.07;64.21;98098.47;4960781;28;124073;-79
2023/08/27 08:01:59;;;;;;;;;;;20.80;99.90;;;21.06;64.38;98113.69;4946500;28;124004;-81
2023/08/27 08:04:28;;;;;;;;;;;20.80;99.90;;;21.06;64.34;98124.13;4945370;28;109367;-80
2023/08/27 08:06:54;;;;;;;;;;;20.80;99.90;;;21.06;63.90;98129.75;4932057;28;108927;-81
2023/08/27 08:09:23;;;;;;;;;;;20.80;99.90;;;21.06;64.08;98136.16;4959609;28;124436;-81
2023/08/27 08:11:50;;;;;;;;;;;19.70;99.60;;;21.08;63.94;98152.63;4938989;28;123986;-81
2023/08/27 08:14:16;;;;;;;;;;;20.80;99.90;;;21.09;64.00;98151.44;4938776;28;108643;-81
2023/08/27 08:16:43;;;;;;;;;;;20.80;99.90;;;21.06;63.55;98153.03;4933913;28;108945;-82
2023/08/27 08:19:09;;;;;;;;;;;20.80;99.90;;;21.05;63.49;98154.22;4930445;28;124695;-80
2023/08/27 08:21:36;;;;;;;;;;;20.80;99.90;;;21.06;63.89;98155.84;4935519;28;124150;-80
2023/08/27 08:24:07;;;;;;;;;;;20.80;99.80;;;21.10;64.01;98153.06;4953848;28;109620;-81
2023/08/27 08:26:36;;;;;;;;;;;20.80;99.90;;;21.16;64.20;98157.88;4937197;28;108423;-82
2023/08/27 08:29:05;;;;;;;;;;;20.90;99.90;;;21.23;63.81;98153.47;4963898;28;123663;-82
2023/08/27 08:31:31;;;;;;;;;;;20.90;99.90;;;21.26;63.76;98158.28;4941755;28;124562;-81
2023/08/27 08:33:57;;;;;;;;;;;20.90;99.90;;;21.31;63.70;98158.69;4934153;28;110118;-81
2023/08/27 08:36:23;;;;;;;;;;;21.00;99.90;;;21.36;63.87;98177.19;4930018;28;109068;-82
2023/08/27 08:38:50;;;;;;;;;;;21.00;99.90;;;21.36;63.48;98174.38;4937149;28;124610;-82
2023/08/27 08:41:20;;;;;;;;;;;21.00;99.90;;;21.32;63.22;98163.09;4938419;28;123880;-83
2023/08/27 08:43:53;;;;;;;;;;;21.00;99.70;;;21.31;62.70;98163.53;4942805;28;109521;-82
2023/08/27 08:46:21;;;;;;;;;;;21.00;99.60;;;21.30;62.80;98145.03;4955656;28;108889;-82
2023/08/27 08:48:49;;;;;;;;;;;21.00;99.50;;;21.32;62.56;98137.81;4961175;28;123977;-82
2023/08/27 08:51:22;;;;;;;;;;;21.00;99.40;;;21.36;62.68;98129.41;4938109;28;124169;-81
2023/08/27 08:53:53;;;;;;;;;;;21.00;99.30;;;21.40;62.37;98121.78;4921459;28;109656;-82
2023/08/27 08:56:24;;;;;;;;;;;21.10;99.40;;;21.42;61.66;98133.44;4936407;28;108946;-82
2023/08/27 08:58:57;;;;;;;;;;;21.80;99.40;;;21.40;61.32;98133.03;4937831;28;124460;-81
2023/08/27 09:01:24;;;;;;;;;;;22.10;99.30;;;21.39;61.69;98135.03;4943712;28;123744;-82
2023/08/27 09:03:51;;;;;;;;;;;21.10;98.80;;;21.38;61.57;98129.81;4930098;28;109263;-82
2023/08/27 09:06:21;;;;;;;;;;;21.10;98.80;;;21.37;61.43;98142.25;4942745;28;108492;-82
2023/08/27 09:08:48;;;;;;;;;;;21.10;98.70;;;21.35;61.27;98136.22;4929872;28;124176;-80
2023/08/27 09:11:15;;;;;;;;;;;21.10;98.70;;;21.33;61.46;98130.19;4943420;28;123859;-80
2023/08/27 09:13:42;;;;;;;;;;;21.20;98.60;;;21.31;61.67;98141.84;4933398;28;108885;-81
2023/08/27 09:16:09;;;;;;;;;;;21.00;98.60;;;21.31;61.64;98135.41;4945599;28;109036;-80
2023/08/27 09:18:35;;;;;;;;;;;21.00;98.60;;;21.35;61.33;98130.59;4964550;28;124536;-80
2023/08/27 09:21:02;;;;;;;;;;;21.10;98.70;;;21.37;61.78;98131.00;4946731;28;125733;-81
2023/08/27 09:23:29;;;;;;;;;;;21.10;98.70;;;21.41;61.45;98143.06;4949636;28;110327;-82
2023/08/27 09:26:00;;;;;;;;;;;21.10;98.70;;;21.43;61.35;98132.22;4921161;28;109598;-82
2023/08/27 09:28:27;;;;;;;;;;;21.10;98.60;;;21.48;61.56;98123.41;4953683;28;124220;-82
2023/08/27 09:30:53;;;;;;;;;;;21.20;98.80;;;21.53;61.85;98111.75;4922661;28;124286;-81
2023/08/27 09:33:34;;;;;;;;;;;21.20;98.80;;;21.60;61.27;98110.94;4945740;28;108632;-82
2023/08/27 09:36:04;;;;;;;;;;;21.30;98.80;;;21.68;61.43;98103.28;4950990;28;108039;-84
2023/08/27 09:38:32;;;;;;;;;;;21.30;98.90;;;21.78;61.45;98110.91;4938483;28;124161;-83
2023/08/27 09:41:11;;;;;;;;;;;21.40;99.00;;;21.90;61.46;98115.31;4914016;28;122917;-83
2023/08/27 09:43:37;;;;;;;;;;;21.40;98.90;;;22.04;61.32;98110.44;4954851;28;109662;-81
2023/08/27 09:46:09;;;;;;;;;;;21.50;99.00;;;22.20;60.96;98100.78;4952310;28;108604;-82
2023/08/27 09:48:35;;;;;;;;;;;21.60;99.10;;;22.32;60.67;98097.50;4932158;28;124792;-81
2023/08/27 09:51:07;;;;;;;;;;;21.80;99.00;;;22.39;60.26;98091.88;4945062;28;124151;-80
2023/08/27 09:53:34;;;;;;;;;;;21.80;98.70;;;22.43;60.02;98101.09;4948333;28;109127;-82
2023/08/27 09:56:06;;;;;;;;;;;21.90;98.50;;;22.47;59.89;98099.06;4940034;28;107752;-80
2023/08/27 09:58:35;;;;;;;;;;;22.00;98.40;;;22.53;59.46;98098.63;4931017;28;123067;-81
2023/08/27 10:01:03;;;;;;;;;;;22.10;98.30;;;22.58;59.14;98104.63;4931208;28;124595;-81
2023/08/27 10:03:29;;;;;;;;;;;22.10;98.10;;;22.61;58.81;98106.63;4930486;28;109590;-81
2023/08/27 10:05:56;;;;;;;;;;;22.10;97.90;;;22.63;58.65;98103.41;4931422;28;108758;-81
2023/08/27 10:08:23;;;;;;;;;;;22.20;97.70;;;22.63;58.17;98094.97;4925477;28;123457;-80
2023/08/27 10:10:49;;;;;;;;;;;22.20;97.50;;;22.62;58.19;98098.97;4930222;28;123964;-81
2023/08/27 10:13:19;;;;;;;;;;;22.20;97.20;;;22.62;57.90;98096.16;4969457;28;109330;-80
2023/08/27 10:15:47;;;;;;;;;;;22.30;97.10;;;22.59;57.66;98099.81;4943767;28;108633;-81
2023/08/27 10:18:15;;;;;;;;;;;22.30;96.90;;;22.57;56.87;98090.97;4964733;28;123856;-83
2023/08/27 10:20:44;;;;;;;;;;;22.20;96.40;;;22.56;56.57;98097.81;4932822;28;123357;-83
2023/08/27 10:23:11;;;;;;;;;;;22.20;96.30;;;22.57;56.65;98096.59;4934495;28;108775;-82
2023/08/27 10:25:40;;;;;;;;;;;22.30;96.30;;;22.63;56.38;98101.41;4960866;28;108699;-82
2023/08/27 10:28:06;;;;;;;;;;;22.30;96.20;;;22.70;55.98;98086.47;4949084;28;123926;-81
2023/08/27 10:30:34;;;;;;;;;;;22.30;96.10;;;22.78;56.12;98081.59;4950376;28;123734;-83
2023/08/27 10:33:06;;;;;;;;;;;22.40;96.10;;;22.85;56.15;98087.97;4941247;28;109614;-82
2023/08/27 10:35:35;;;;;;;;;;;22.50;96.10;;;22.92;55.61;98073.88;4922007;28;107587;-82
2023/08/27 10:38:03;;;;;;;;;;;22.50;96.00;;;22.97;55.37;98077.47;4933738;28;124116;-82
2023/08/27 10:40:29;;;;;;;;;;;22.60;95.80;;;23.04;55.47;98080.25;4929066;28;124014;-82
2023/08/27 10:43:20;;;;;;;;;;;22.60;95.80;;;23.08;54.82;98064.13;4929982;28;109414;-81
2023/08/27 10:45:48;;;;;;;;;;;22.70;95.40;;;23.06;54.62;98070.16;4943331;28;108056;-82
2023/08/27 10:48:17;;;;;;;;;;;22.70;95.20;;;23.08;54.16;98075.41;4958632;28;125023;-82
2023/08/27 10:51:08;;;;;;;;;;;22.70;95.00;;;23.11;54.19;98081.00;4939054;28;124620;-82
2023/08/27 10:53:49;;;;;;;;;;;22.70;94.90;;;23.15;53.85;98078.16;4936981;28;108662;-82
2023/08/27 10:56:26;;;;;;;;;;;22.80;94.80;;;23.19;53.88;98081.75;4947929;28;108776;-82
2023/08/27 10:59:26;;;;;;;;;;;22.80;94.60;;;23.18;53.78;98077.31;4918329;28;124688;-82
2023/08/27 11:02:09;;;;;;;;;;;22.90;94.60;;;23.19;53.95;98081.75;4952874;28;123672;-82
2023/08/27 11:04:41;;;;;;;;;;;22.90;94.60;;;23.22;53.33;98078.09;4928288;28;110651;-83
2023/08/27 11:07:18;;;;;;;;;;;22.90;94.40;;;23.24;53.59;98078.50;4926124;28;109214;-81
2023/08/27 11:09:47;;;;;;;;;;;22.90;94.30;;;23.32;53.64;98085.66;4948422;28;124252;-82
2023/08/27 11:12:25;;;;;;;;;;;23.00;94.40;;;23.41;53.14;98087.22;4932222;28;124519;-81
2023/08/27 11:14:52;;;;;;;;;;;23.00;94.30;;;23.45;52.93;98094.41;4949364;28;109579;-82
2023/08/27 11:17:23;;;;;;;;;;;23.10;94.10;;;23.51;52.81;98086.31;4932937;28;108828;-82
2023/08/27 11:20:22;;;;;;;;;;;24.20;94.50;;;23.55;52.86;98084.25;4929735;28;124900;-81
2023/08/27 11:23:00;;;;;;;;;;;23.20;94.00;;;23.60;52.53;98078.16;4922990;28;124073;-81
2023/08/27 11:25:51;;;;;;;;;;;23.20;93.90;;;23.62;52.54;98080.56;4956797;28;108994;-80
2023/08/27 11:28:18;;;;;;;;;;;23.30;93.80;;;23.65;52.31;98069.25;4952972;28;108713;-80
2023/08/27 11:30:44;;;;;;;;;;;23.30;93.70;;;23.67;51.90;98078.09;4933711;28;123588;-81
2023/08/27 11:33:14;;;;;;;;;;;23.30;93.50;;;23.66;51.79;98076.47;4948401;28;123864;-82
2023/08/27 11:35:40;;;;;;;;;;;23.30;93.30;;;23.67;52.19;98071.63;4942729;28;109434;-81
2023/08/27 11:38:10;;;;;;;;;;;23.40;93.40;;;23.71;51.83;98067.59;4963897;28;109081;-82
2023/08/27 11:40:38;;;;;;;;;;;23.40;93.50;;;23.75;52.24;98065.56;4966074;28;124306;-80
2023/08/27 11:43:05;;;;;;;;;;;23.40;93.50;;;23.81;52.16;98063.88;4966127;28;123554;-81
2023/08/27 11:45:34;;;;;;;;;;;23.50;93.60;;;23.87;52.17;98074.69;4947914;28;109784;-80
2023/08/27 11:48:05;;;;;;;;;;;23.50;93.60;;;23.91;52.10;98064.16;4933368;28;108605;-81
2023/08/27 11:50:32;;;;;;;;;;;23.60;93.50;;;23.93;52.05;98067.38;4960319;28;124244;-79
2023/08/27 11:53:01;;;;;;;;;;;23.60;93.50;;;23.95;51.68;98077.03;4957304;28;124406;-81
2023/08/27 11:55:27;;;;;;;;;;;23.60;93.30;;;23.97;51.72;98076.63;4934767;28;110706;-80